This is the latest recevied weather packets stored in our database for station/object ON7EQ-13. If no packets are shown the sender has not sent any weather packets the latest 10 day(s).
| Time | Temp. | Humidity | Pressure | Rain* | Wind** | Luminosity | Snow |
|---|---|---|---|---|---|---|---|
| 1777740194 | 23.33° C | 84% | 1012.4 hPa | - | - | - | - |
| 1777739595 | 22.78° C | 90% | 1012.5 hPa | - | - | - | - |
| 1777738995 | 22.22° C | 87% | 1012.9 hPa | - | - | - | - |
| 1777738395 | 23.33° C | 88% | 1012.9 hPa | - | - | - | - |
| 1777737795 | 21.67° C | 88% | 1013.1 hPa | - | - | - | - |
| 1777737195 | 22.22° C | 83% | 1013.3 hPa | - | - | - | - |
| 1777736595 | 23.33° C | 75% | 1013.4 hPa | - | - | - | - |
| 1777735995 | 25.56° C | 59% | 1013.4 hPa | - | - | - | - |
| 1777735394 | 27.78° C | 47% | 1013.4 hPa | - | - | - | - |
| 1777734795 | 28.89° C | 47% | 1013.5 hPa | - | - | - | - |
| 1777734195 | 28.33° C | 48% | 1013.7 hPa | - | - | - | - |
| 1777733594 | 27.78° C | 48% | 1013.9 hPa | - | - | - | - |
| 1777732995 | 26.11° C | 51% | 1014 hPa | - | - | - | - |
| 1777732395 | 27.78° C | 47% | 1014.2 hPa | - | - | - | - |
| 1777731795 | 28.33° C | 47% | 1014.3 hPa | - | - | - | - |
| 1777731195 | 28.33° C | 48% | 1014.5 hPa | - | - | - | - |
| 1777730595 | 28.33° C | 48% | 1014.8 hPa | - | - | - | - |
| 1777729994 | 28.33° C | 47% | 1014.9 hPa | - | - | - | - |
| 1777729395 | 28.33° C | 48% | 1015 hPa | - | - | - | - |
| 1777728794 | 27.78° C | 53% | 1015.1 hPa | - | - | - | - |
| 1777727595 | 26.67° C | 54% | 1015.3 hPa | - | - | - | - |
| 1777726995 | 26.11° C | 55% | 1015.4 hPa | - | - | - | - |
| 1777726395 | 27.22° C | 51% | 1015.5 hPa | - | - | - | - |
| 1777725795 | 26.67° C | 54% | 1015.6 hPa | - | - | - | - |
| 1777725195 | 27.22° C | 55% | 1015.8 hPa | - | - | - | - |
* Rain since midnight (hover to see other rain measurements)
** Current wind speed in m/s (hover to see current wind gust speed)